RJTY/OKO METAR and TAF weather

Enter ICAO airport designator
Station Type Date Time Source
RJTY METAR 2020/07/06 09:56 UTC NOAA

RJTY 060956Z AUTO 22009G18KT 10SM FEW160 25/17 A2977 RMK AO2 SLP078 T02520171 FZRANO $


Station Type Date Time Source
RJTY Decoded METAR 2020/07/06 09:56 UTC NOAA

Yokota Ab, Japan (RJTY) 35-45N 139-21E 142M
Jul 06, 2020 - 05:56 AM EDT / 2020.07.06 0956 UTC
Wind: from the SW (220 degrees) at 10 MPH (9 KT) gusting to 21 MPH (18 KT):0
Visibility: 10 mile(s):0
Sky conditions: mostly clear
Temperature: 77.4 F (25.2 C)
Dew Point: 62.8 F (17.1 C)
Relative Humidity: 60%
Pressure (altimeter): 29.77 in. Hg (1008 hPa)
ob: RJTY 060956Z AUTO 22009G18KT 10SM FEW160 25/17 A2977 RMK AO2 SLP078 T02520171 FZRANO
cycle: 10

Station Type Date Time Source
RJTY TAF 2020/07/06 05:06 UTC NOAA

TAF TAF RJTY 060500Z 0605/0711 18012KT 9000 -SHRA FEW010 BKN030 BKN050 QNH2978INS
TEMPO 0605/0610 18012G18KT
BECMG 0609/0610 18009KT 9999 NSW SCT020 BKN060 QNH2972INS
BECMG 0620/0621 18006KT 8000 BR BKN015 BKN080 QNH2974INS
BECMG 0701/0702 20009KT 9999 NSW FEW020 SCT150 QNH2972INS TX28/0704Z TN22/0619Z

Example: see airport list